CheckWX is a tool to help pilots better visualize weather data.  It is not intended as a substitute for an official pre-flight weather briefing.

05:58:56 UTC

KOGB TAF
Orangeburg Municipal Airport
Orangeburg, South Carolina, USA
KOGB 110521Z 1106/1206 VRB03KT P6SM -SHRA SCT060 FM111400 31006KT P6SM SCT060 FM120100 VRB03KT P6SM FEW060

Jul-11@
06:00 UTC

Jul-11 @ 06:00 UTC

Jul-11@
14:00 UTC

Jul-11 @ 14:00 UTC

TAF KOGB 110521Z 1106/1206 VRB03KT P6SM -SHRA SCT060

Expired

Wind
  • Variable at 3 KTS
Conditions
Light Showers, Rain
Cloud Levels
  • Scattered at 6,000' AGL

Jul-11@
14:00 UTC

Jul-11 @ 14:00 UTC

Jul-12@
01:00 UTC

Jul-12 @ 01:00 UTC

FM111400 31006KT P6SM SCT060

Expired

Wind
  • 310° at 6 KTS
Cloud Levels
  • Scattered at 6,000' AGL

Jul-12@
01:00 UTC

Jul-12 @ 01:00 UTC

Jul-12@
06:00 UTC

Jul-12 @ 06:00 UTC

FM120100 VRB03KT P6SM FEW060

From

From Standard forecast or significant change

Wind
  • Variable at 3 KTS
Cloud Levels
  • Few at 6,000' AGL